Time;durP1;ratioP1;P1;durP2;ratioP2;P2;SDS_P1;SDS_P2;PMS_P1;PMS_P2;Temp;Humidity;BMP_temperature;BMP_pressure;BME280_temperature;BME280_humidity;BME280_pressure;Samples;Min_cycle;Max_cycle;Signal;HPM_P1;HPM_P2
2022/04/01 00:01:40;;;;;;;13.05;11.00;;;8.90;71.20;;;;;;5073250;28;20028;-49
2022/04/01 00:04:06;;;;;;;12.50;10.80;;;8.80;71.40;;;;;;5073789;28;20385;-54
2022/04/01 00:06:32;;;;;;;13.43;12.02;;;8.90;71.70;;;;;;5072846;28;20032;-55
2022/04/01 00:08:59;;;;;;;12.95;11.57;;;8.90;71.60;;;;;;5055355;28;20032;-57
2022/04/01 00:11:25;;;;;;;13.25;11.85;;;8.90;71.30;;;;;;5054896;28;20480;-49
2022/04/01 00:13:50;;;;;;;14.38;12.88;;;8.80;71.50;;;;;;5055517;28;20025;-55
2022/04/01 00:16:16;;;;;;;12.88;11.48;;;8.80;71.80;;;;;;5073074;28;20031;-54
2022/04/01 00:18:42;;;;;;;13.75;12.45;;;8.90;71.80;;;;;;5054855;28;20468;-49
2022/04/01 00:21:07;;;;;;;14.25;12.73;;;8.90;71.30;;;;;;5055419;28;20020;-57
2022/04/01 00:23:33;;;;;;;12.38;11.07;;;8.90;71.80;;;;;;5072550;28;20025;-54
2022/04/01 00:25:59;;;;;;;13.18;11.77;;;8.80;71.10;;;;;;5055190;28;20020;-51
2022/04/01 00:28:24;;;;;;;15.90;13.02;;;8.80;71.20;;;;;;5054493;28;20430;-65
2022/04/01 00:30:50;;;;;;;13.80;12.32;;;8.80;70.80;;;;;;5055371;28;20405;-56
2022/04/01 00:33:16;;;;;;;13.68;12.25;;;8.70;71.70;;;;;;5073134;28;20116;-53
2022/04/01 00:35:43;;;;;;;13.05;11.60;;;8.70;71.20;;;;;;5072478;28;20052;-52
2022/04/01 00:38:08;;;;;;;13.45;12.15;;;8.70;70.80;;;;;;5055088;28;20024;-51
2022/04/01 00:40:36;;;;;;;14.32;12.82;;;8.70;70.80;;;;;;5072157;28;20058;-49
2022/04/01 00:43:01;;;;;;;13.90;12.50;;;8.70;70.90;;;;;;5072831;28;20037;-54
2022/04/01 00:45:27;;;;;;;14.63;12.75;;;8.70;70.60;;;;;;5054515;28;20077;-50
2022/04/01 00:47:55;;;;;;;14.10;12.60;;;8.60;70.90;;;;;;5055119;28;20036;-51
2022/04/01 00:50:22;;;;;;;13.43;12.10;;;8.60;71.30;;;;;;5073033;28;20041;-53
2022/04/01 00:52:48;;;;;;;13.45;12.00;;;8.70;71.30;;;;;;5054375;28;20051;-52
2022/04/01 00:55:14;;;;;;;15.63;14.07;;;8.70;71.10;;;;;;5072868;28;20454;-54
2022/04/01 00:57:40;;;;;;;13.35;12.02;;;8.60;71.00;;;;;;5072380;28;20052;-52
2022/04/01 01:00:07;;;;;;;13.63;12.23;;;8.70;71.00;;;;;;5054257;28;20150;-57
2022/04/01 01:02:34;;;;;;;14.75;13.25;;;8.70;71.00;;;;;;5072308;28;20028;-56
2022/04/01 01:05:00;;;;;;;13.32;11.88;;;8.60;70.60;;;;;;5054895;28;20028;-54
2022/04/01 01:07:26;;;;;;;13.23;11.77;;;8.50;70.80;;;;;;5072982;28;20024;-54
2022/04/01 01:09:53;;;;;;;14.55;13.05;;;8.60;71.00;;;;;;5072585;28;20457;-52
2022/04/01 01:12:19;;;;;;;15.35;12.68;;;8.60;70.40;;;;;;5072596;28;20107;-52
2022/04/01 01:14:46;;;;;;;14.15;12.70;;;8.60;70.10;;;;;;5072383;28;20032;-56
2022/04/01 01:17:14;;;;;;;13.77;12.27;;;8.50;70.20;;;;;;5054767;28;20028;-50
2022/04/01 01:19:40;;;;;;;13.93;12.25;;;8.40;70.00;;;;;;5072067;28;20028;-54
2022/04/01 01:22:06;;;;;;;13.35;12.05;;;8.40;70.40;;;;;;5072587;28;20024;-55
2022/04/01 01:24:35;;;;;;;13.15;11.77;;;8.40;70.30;;;;;;5071989;28;20028;-53
2022/04/01 01:27:02;;;;;;;13.27;11.93;;;8.30;70.30;;;;;;5072438;28;20425;-52
2022/04/01 01:29:30;;;;;;;14.23;12.60;;;8.30;70.30;;;;;;5072526;28;20036;-63
2022/04/01 01:32:01;;;;;;;13.75;12.35;;;8.30;70.30;;;;;;5054528;28;20028;-51
2022/04/01 01:34:29;;;;;;;13.90;12.43;;;8.30;70.30;;;;;;5054343;28;20021;-52
2022/04/01 01:36:56;;;;;;;12.98;11.57;;;8.30;70.30;;;;;;5072320;28;20415;-48
2022/04/01 01:39:22;;;;;;;13.88;12.05;;;8.30;70.30;;;;;;5072229;28;20046;-54
2022/04/01 01:41:50;;;;;;;14.45;12.77;;;8.30;70.70;;;;;;5053540;28;20028;-50
2022/04/01 01:44:17;;;;;;;13.38;11.98;;;8.40;70.70;;;;;;5071987;28;20028;-54
2022/04/01 01:46:43;;;;;;;13.00;11.50;;;8.40;70.30;;;;;;5053502;28;20032;-50
2022/04/01 01:49:09;;;;;;;12.38;11.15;;;8.40;69.70;;;;;;5054113;28;20123;-51
2022/04/01 01:57:04;;;;;;;;;;;8.40;69.40;;;;;;5076313;28;20134;-52
2022/04/01 01:59:30;;;;;;;12.77;10.75;;;8.40;69.40;;;;;;5057693;28;19916;-55
2022/04/01 02:01:56;;;;;;;12.40;10.80;;;8.40;69.20;;;;;;5075969;28;20029;-53
2022/04/01 02:04:22;;;;;;;12.68;11.38;;;8.50;68.90;;;;;;5076127;28;20031;-51
2022/04/01 02:06:49;;;;;;;13.98;12.48;;;8.50;68.70;;;;;;5075193;28;20017;-49
2022/04/01 02:09:15;;;;;;;13.20;11.52;;;8.40;68.50;;;;;;5075707;28;20024;-54
2022/04/01 02:11:41;;;;;;;13.35;11.93;;;8.40;69.00;;;;;;5057374;28;20035;-53
2022/04/01 02:14:07;;;;;;;13.52;12.10;;;8.40;69.00;;;;;;5057818;28;20115;-50
2022/04/01 02:16:33;;;;;;;13.45;12.05;;;8.30;68.80;;;;;;5057226;28;20070;-53
2022/04/01 02:18:59;;;;;;;14.05;12.57;;;8.30;69.10;;;;;;5075788;28;20028;-47
2022/04/01 02:21:27;;;;;;;15.40;13.48;;;8.30;69.50;;;;;;5057327;28;20028;-51
2022/04/01 02:23:52;;;;;;;14.35;12.88;;;8.30;68.60;;;;;;5075187;28;20100;-49
2022/04/01 02:26:19;;;;;;;15.13;12.80;;;8.20;68.80;;;;;;5057869;28;20048;-50
2022/04/01 02:28:45;;;;;;;14.40;12.90;;;8.20;69.00;;;;;;5057161;28;20045;-50
2022/04/01 02:31:11;;;;;;;13.80;12.43;;;8.30;69.10;;;;;;5075565;28;20020;-50
2022/04/01 02:33:37;;;;;;;14.40;12.90;;;8.30;69.20;;;;;;5075196;28;20031;-51
2022/04/01 02:36:06;;;;;;;14.50;12.70;;;8.20;68.90;;;;;;5075189;28;20029;-52
2022/04/01 02:38:32;;;;;;;14.73;13.15;;;8.20;69.00;;;;;;5040980;28;20025;-48
2022/04/01 02:40:58;;;;;;;14.30;12.80;;;8.10;69.00;;;;;;5056866;28;20036;-54
2022/04/01 02:43:25;;;;;;;14.40;12.90;;;8.10;69.00;;;;;;5075152;28;20043;-51
2022/04/01 02:45:51;;;;;;;14.45;12.90;;;8.10;69.10;;;;;;5074531;28;20044;-53
2022/04/01 02:48:20;;;;;;;14.68;13.07;;;8.00;68.80;;;;;;5075052;28;20030;-51
2022/04/01 02:50:47;;;;;;;14.63;13.13;;;8.10;68.80;;;;;;5074494;28;20024;-52
2022/04/01 02:53:15;;;;;;;17.75;13.93;;;8.10;68.90;;;;;;5075070;28;20051;-51
2022/04/01 02:55:41;;;;;;;14.77;12.65;;;8.00;68.90;;;;;;5074406;28;20052;-53
2022/04/01 02:58:07;;;;;;;17.55;13.98;;;8.10;69.00;;;;;;5075235;28;20059;-52
2022/04/01 03:00:35;;;;;;;15.88;13.27;;;8.00;69.10;;;;;;5074857;28;20064;-51
2022/04/01 03:03:06;;;;;;;14.32;12.85;;;8.00;69.10;;;;;;5056461;28;20028;-48
2022/04/01 03:05:33;;;;;;;14.23;12.73;;;8.00;69.00;;;;;;5074534;28;20052;-49
2022/04/01 03:07:59;;;;;;;15.13;13.45;;;8.00;69.10;;;;;;5074568;28;20111;-52
2022/04/01 03:10:24;;;;;;;18.25;14.25;;;8.10;69.00;;;;;;5074662;28;20086;-52
2022/04/01 03:12:51;;;;;;;14.85;12.85;;;8.00;68.50;;;;;;5074239;28;20021;-48
2022/04/01 03:15:17;;;;;;;16.05;14.38;;;8.10;68.50;;;;;;5074448;28;20468;-51
2022/04/01 03:17:43;;;;;;;14.70;13.20;;;8.10;68.30;;;;;;5074200;28;20037;-49
2022/04/01 03:20:13;;;;;;;15.23;13.63;;;8.10;68.40;;;;;;5074718;28;20115;-51
2022/04/01 03:22:43;;;;;;;14.27;12.35;;;8.10;68.60;;;;;;5056747;28;20024;-54
2022/04/01 03:25:12;;;;;;;15.75;13.63;;;8.10;68.40;;;;;;5073998;28;20492;-51
2022/04/01 03:27:39;;;;;;;14.98;13.38;;;8.10;68.40;;;;;;5072736;28;20028;-56
2022/04/01 03:30:09;;;;;;;14.85;13.25;;;8.10;68.30;;;;;;5073359;28;20078;-56
2022/04/01 03:32:37;;;;;;;15.25;13.65;;;8.10;68.40;;;;;;5072860;28;20024;-52
2022/04/01 03:35:05;;;;;;;14.93;13.32;;;8.10;68.20;;;;;;5055721;28;20116;-49
2022/04/01 03:37:31;;;;;;;14.27;12.77;;;8.00;68.00;;;;;;5074084;28;20032;-53
2022/04/01 03:39:58;;;;;;;15.23;13.63;;;8.00;68.00;;;;;;5055502;28;20519;-48
2022/04/01 03:42:23;;;;;;;15.50;13.90;;;7.90;68.40;;;;;;5074066;28;20035;-50
2022/04/01 03:44:49;;;;;;;16.08;13.77;;;8.00;68.30;;;;;;5055674;28;20025;-52
2022/04/01 03:47:22;;;;;;;14.82;13.32;;;8.00;68.20;;;;;;5074076;28;20035;-47
2022/04/01 03:49:58;;;;;;;15.00;13.32;;;8.00;68.10;;;;;;5073305;28;20032;-55
2022/04/01 03:52:24;;;;;;;15.52;13.45;;;8.00;68.20;;;;;;5073652;28;20020;-54
2022/04/01 03:54:56;;;;;;;16.33;14.63;;;8.00;68.40;;;;;;5055060;28;20025;-54
2022/04/01 03:57:32;;;;;;;16.80;14.88;;;8.00;68.10;;;;;;5073455;28;20035;-51
2022/04/01 03:59:59;;;;;;;16.38;14.77;;;8.00;68.10;;;;;;5072405;28;20207;-54
2022/04/01 04:02:26;;;;;;;16.25;14.55;;;7.90;68.50;;;;;;5073194;28;20020;-53
2022/04/01 04:04:55;;;;;;;15.20;13.60;;;7.90;68.60;;;;;;5072319;28;20028;-51
2022/04/01 04:07:23;;;;;;;15.63;14.02;;;8.00;68.40;;;;;;5073635;28;20031;-50
2022/04/01 04:09:49;;;;;;;15.23;13.60;;;8.00;68.30;;;;;;5073009;28;20086;-54
2022/04/01 04:12:17;;;;;;;15.68;14.07;;;8.00;68.20;;;;;;5073126;28;20401;-54
2022/04/01 04:14:43;;;;;;;15.00;13.40;;;8.00;67.60;;;;;;5073284;28;20028;-53
2022/04/01 04:17:16;;;;;;;15.38;13.77;;;7.90;67.80;;;;;;5038659;28;20024;-54
2022/04/01 04:20:01;;;;;;;15.60;12.97;;;7.90;67.70;;;;;;5072283;28;20116;-53
2022/04/01 04:22:51;;;;;;;18.05;13.10;;;7.90;67.90;;;;;;5073157;28;20052;-50
2022/04/01 04:25:22;;;;;;;14.55;12.70;;;7.90;67.90;;;;;;5054277;28;20032;-48
2022/04/01 04:27:58;;;;;;;15.85;12.88;;;7.90;68.20;;;;;;5072278;28;20392;-51
2022/04/01 04:30:37;;;;;;;15.25;13.55;;;8.00;67.90;;;;;;5054946;28;20024;-49
2022/04/01 04:33:04;;;;;;;14.20;12.75;;;8.00;67.70;;;;;;5072433;28;20028;-50
2022/04/01 04:35:30;;;;;;;15.50;13.90;;;8.00;67.60;;;;;;5072854;28;20025;-50
2022/04/01 04:37:58;;;;;;;18.98;14.20;;;8.00;67.50;;;;;;5054449;28;20032;-54
2022/04/01 04:40:25;;;;;;;15.30;13.70;;;8.10;67.60;;;;;;5054591;28;20075;-48
2022/04/01 04:42:51;;;;;;;15.25;13.65;;;8.10;67.50;;;;;;5038092;28;20029;-47
2022/04/01 04:45:19;;;;;;;15.00;13.48;;;8.10;67.40;;;;;;5072312;28;20050;-49
2022/04/01 04:47:46;;;;;;;16.60;13.00;;;8.10;67.40;;;;;;5072079;28;20039;-53
2022/04/01 04:50:11;;;;;;;14.73;13.23;;;8.10;67.40;;;;;;5037883;28;20488;-54
2022/04/01 04:52:39;;;;;;;15.10;13.50;;;8.00;67.50;;;;;;5072886;28;20030;-54
2022/04/01 04:55:08;;;;;;;14.70;13.20;;;8.00;67.40;;;;;;5071725;28;20036;-54
2022/04/01 04:57:35;;;;;;;13.80;12.05;;;7.90;67.70;;;;;;5072718;28;20040;-51
2022/04/01 05:00:01;;;;;;;13.85;12.45;;;8.00;67.90;;;;;;5071501;28;20197;-52
2022/04/01 05:02:27;;;;;;;14.85;13.25;;;8.00;67.60;;;;;;5053528;28;20024;-50
2022/04/01 05:05:09;;;;;;;15.43;11.98;;;8.10;67.50;;;;;;5070556;28;20462;-49
2022/04/01 05:07:53;;;;;;;13.90;12.48;;;8.10;67.40;;;;;;5054722;28;20028;-52
2022/04/01 05:10:41;;;;;;;19.92;13.32;;;8.10;67.40;;;;;;5054503;28;20035;-52
2022/04/01 05:13:25;;;;;;;18.00;12.63;;;8.10;67.50;;;;;;5071834;28;20021;-53
2022/04/01 05:16:02;;;;;;;16.70;12.48;;;8.10;67.50;;;;;;5053884;28;20024;-53
2022/04/01 05:19:00;;;;;;;15.00;11.45;;;8.20;67.30;;;;;;5072356;28;20111;-57
2022/04/01 05:21:28;;;;;;;14.07;11.43;;;8.10;67.10;;;;;;5065045;28;20044;-50
2022/04/01 05:24:01;;;;;;;14.40;12.82;;;8.10;67.00;;;;;;5071562;28;20028;-53
2022/04/01 05:26:40;;;;;;;13.00;11.60;;;8.10;67.10;;;;;;5072333;28;20068;-49
2022/04/01 05:29:13;;;;;;;12.95;11.57;;;8.10;67.10;;;;;;5071154;28;20496;-49
2022/04/01 05:31:49;;;;;;;12.80;11.40;;;8.00;67.20;;;;;;5071889;28;20122;-50
2022/04/01 05:34:44;;;;;;;21.88;13.10;;;8.00;68.00;;;;;;5053281;28;20032;-55
2022/04/01 05:37:11;;;;;;;31.27;12.95;;;7.90;67.70;;;;;;5068392;28;20155;-54
2022/04/01 05:39:40;;;;;;;16.02;11.95;;;7.80;68.10;;;;;;5054121;28;20058;-51
2022/04/01 05:42:07;;;;;;;15.20;12.82;;;7.80;68.30;;;;;;5071299;28;20016;-50
2022/04/01 05:44:35;;;;;;;13.48;11.70;;;7.80;68.00;;;;;;5053185;28;20031;-53
2022/04/01 05:47:02;;;;;;;11.35;10.20;;;7.90;68.10;;;;;;5071205;28;20098;-49
2022/04/01 05:52:13;;;;;;;40.88;14.55;;;7.90;67.60;;;;;;5071041;28;20110;-56
2022/04/01 05:54:41;;;;;;;17.02;11.07;;;7.90;67.40;;;;;;5070886;28;20052;-48
2022/04/01 05:57:10;;;;;;;13.15;11.00;;;7.90;67.80;;;;;;5070663;28;20589;-52
2022/04/01 05:59:38;;;;;;;12.82;10.88;;;7.90;67.80;;;;;;5070658;28;20053;-54
2022/04/01 06:02:06;;;;;;;13.52;10.75;;;8.00;67.70;;;;;;5069445;28;20057;-54
2022/04/01 06:05:09;;;;;;;21.27;11.05;;;8.10;67.40;;;;;;5052486;28;20083;-50
2022/04/01 06:07:59;;;;;;;16.45;10.70;;;7.90;67.50;;;;;;5052878;28;20139;-49
2022/04/01 06:10:36;;;;;;;19.42;11.32;;;7.90;67.90;;;;;;5070887;28;20100;-51
2022/04/01 06:13:30;;;;;;;12.02;9.93;;;8.10;67.60;;;;;;5069870;28;20033;-52
2022/04/01 06:16:16;;;;;;;15.33;10.63;;;8.10;67.20;;;;;;5052401;28;20112;-50
2022/04/01 06:18:53;;;;;;;11.43;8.95;;;8.10;67.20;;;;;;5050131;28;20740;-51
2022/04/01 06:21:24;;;;;;;11.65;9.75;;;8.10;67.00;;;;;;5070638;28;20084;-52
2022/04/01 06:24:06;;;;;;;10.90;8.32;;;8.10;67.00;;;;;;5070490;28;20025;-52
2022/04/01 06:26:38;;;;;;;11.35;9.63;;;8.20;66.80;;;;;;5053017;28;20437;-55
2022/04/01 06:29:33;;;;;;;14.30;8.40;;;8.20;66.20;;;;;;5070077;28;20100;-56
2022/04/01 06:32:13;;;;;;;13.18;9.32;;;8.20;66.40;;;;;;5052537;28;20052;-51
2022/04/01 06:35:06;;;;;;;11.73;9.13;;;8.20;66.20;;;;;;5070858;28;20028;-51
2022/04/01 06:37:59;;;;;;;9.50;8.32;;;8.30;66.40;;;;;;5053180;28;20377;-51
2022/04/01 06:40:43;;;;;;;9.32;8.30;;;8.30;66.10;;;;;;5067384;28;20049;-56
2022/04/01 06:43:09;;;;;;;;;;;8.30;66.20;;;;;;5055374;28;20021;-48
2022/04/01 06:45:35;;;;;;;10.80;8.65;;;8.30;66.10;;;;;;5056826;28;19912;-51
2022/04/01 06:48:01;;;;;;;10.25;7.68;;;8.40;65.90;;;;;;5055546;28;20047;-55
2022/04/01 06:50:27;;;;;;;16.40;8.13;;;8.50;65.60;;;;;;5055561;28;20024;-49
2022/04/01 06:52:52;;;;;;;9.50;7.43;;;8.50;65.60;;;;;;5055436;28;20160;-51
2022/04/01 06:55:18;;;;;;;13.20;7.72;;;8.60;65.20;;;;;;5056253;28;20158;-50
2022/04/01 06:57:44;;;;;;;11.10;7.43;;;8.60;64.60;;;;;;5073533;28;20024;-52
2022/04/01 07:00:14;;;;;;;9.95;7.35;;;8.50;64.50;;;;;;5073162;28;20112;-59
2022/04/01 07:02:41;;;;;;;10.57;7.65;;;8.30;64.60;;;;;;5074471;28;20031;-50
2022/04/01 07:05:08;;;;;;;8.48;7.03;;;8.30;65.20;;;;;;5074662;28;20027;-55
2022/04/01 07:07:35;;;;;;;23.27;7.35;;;8.40;65.00;;;;;;5056139;28;20082;-54
2022/04/01 07:10:02;;;;;;;13.57;7.28;;;8.50;65.00;;;;;;5074236;28;20448;-51
2022/04/01 07:12:28;;;;;;;9.30;7.10;;;8.50;64.70;;;;;;5055478;28;20078;-55
2022/04/01 07:14:54;;;;;;;7.30;6.55;;;8.40;64.50;;;;;;5073842;28;20024;-56
2022/04/01 07:17:19;;;;;;;8.85;6.50;;;8.50;64.40;;;;;;5073735;28;20361;-52
2022/04/01 07:19:45;;;;;;;7.88;6.28;;;8.50;64.40;;;;;;5055838;28;20025;-55
2022/04/01 07:22:11;;;;;;;8.75;5.75;;;8.50;64.10;;;;;;5073889;28;20123;-56
2022/04/01 07:24:37;;;;;;;7.82;5.93;;;8.50;64.30;;;;;;5074239;28;20103;-53
2022/04/01 07:27:04;;;;;;;6.95;6.05;;;8.50;64.20;;;;;;5073400;28;20440;-51
2022/04/01 07:29:30;;;;;;;7.75;6.03;;;8.50;63.70;;;;;;5056081;28;20135;-49
2022/04/01 07:34:42;;;;;;;8.73;6.03;;;8.50;63.90;;;;;;5073781;28;20091;-49
2022/04/01 07:37:09;;;;;;;9.30;6.82;;;8.70;63.90;;;;;;5055667;28;20020;-49
2022/04/01 07:39:35;;;;;;;7.13;5.93;;;8.80;63.50;;;;;;5073734;28;20499;-53
2022/04/01 07:42:01;;;;;;;9.73;6.40;;;8.80;63.20;;;;;;5055358;28;20020;-54
2022/04/01 07:44:27;;;;;;;15.27;6.70;;;8.90;62.60;;;;;;5055262;28;20024;-54
2022/04/01 07:46:54;;;;;;;9.90;6.40;;;8.80;62.30;;;;;;5072899;28;20028;-63
2022/04/01 07:49:20;;;;;;;7.68;5.97;;;8.90;62.50;;;;;;5071679;28;20424;-50
2022/04/01 07:51:46;;;;;;;9.27;5.70;;;8.90;62.20;;;;;;5072941;28;20032;-57
2022/04/01 07:54:16;;;;;;;12.27;5.70;;;8.90;62.20;;;;;;5052919;28;20074;-53
2022/04/01 07:56:42;;;;;;;10.25;6.53;;;9.10;62.10;;;;;;5073304;28;20029;-53
2022/04/01 07:59:15;;;;;;;9.10;5.88;;;9.10;61.20;;;;;;5072442;28;20045;-50
2022/04/01 08:01:41;;;;;;;8.18;6.07;;;9.20;61.20;;;;;;5072907;28;20029;-56
2022/04/01 08:04:07;;;;;;;10.13;5.68;;;9.20;61.20;;;;;;5052899;28;20055;-57
2022/04/01 08:06:33;;;;;;;8.05;5.15;;;9.30;61.00;;;;;;5071984;28;20385;-52
2022/04/01 08:08:59;;;;;;;12.40;6.28;;;9.30;60.50;;;;;;5071542;28;20098;-53
2022/04/01 08:11:26;;;;;;;11.52;5.55;;;9.30;60.30;;;;;;5053878;28;20059;-52
2022/04/01 08:13:54;;;;;;;10.30;6.18;;;9.30;60.20;;;;;;5071399;28;20037;-60
2022/04/01 08:16:20;;;;;;;8.35;5.60;;;9.30;60.40;;;;;;5071236;28;20125;-51
2022/04/01 08:18:46;;;;;;;13.05;6.20;;;9.30;60.40;;;;;;5054307;28;20062;-54
2022/04/01 08:21:12;;;;;;;9.10;5.65;;;9.20;60.50;;;;;;5053242;28;20080;-52
2022/04/01 08:23:38;;;;;;;6.93;5.75;;;9.20;60.40;;;;;;5071248;28;20036;-55
2022/04/01 08:26:05;;;;;;;10.57;6.40;;;9.20;60.50;;;;;;5036253;28;20028;-52
2022/04/01 08:28:31;;;;;;;10.50;5.95;;;9.10;60.80;;;;;;5038171;28;20170;-51
2022/04/01 08:30:57;;;;;;;11.68;6.07;;;9.20;61.10;;;;;;5071346;28;20029;-53
2022/04/01 08:33:23;;;;;;;8.27;5.63;;;9.30;60.70;;;;;;5071711;28;20540;-55
2022/04/01 08:35:50;;;;;;;15.63;6.10;;;9.30;61.20;;;;;;5053041;28;20103;-55
2022/04/01 08:38:16;;;;;;;25.15;7.35;;;9.20;60.40;;;;;;5071051;28;20101;-55
2022/04/01 08:40:41;;;;;;;8.35;5.60;;;9.10;60.90;;;;;;5053479;28;20501;-65
2022/04/01 08:43:08;;;;;;;12.52;5.97;;;9.00;61.20;;;;;;5051994;28;20024;-56
2022/04/01 08:45:36;;;;;;;9.85;6.15;;;9.10;61.40;;;;;;5053260;28;20465;-51
2022/04/01 08:48:05;;;;;;;16.98;6.32;;;9.30;61.10;;;;;;5071021;28;20055;-58
2022/04/01 08:50:31;;;;;;;11.88;6.10;;;9.30;60.50;;;;;;5053492;28;20477;-49
2022/04/01 08:52:56;;;;;;;9.25;5.70;;;9.40;60.90;;;;;;5052983;28;20390;-48
2022/04/01 08:55:22;;;;;;;6.90;5.40;;;9.40;59.80;;;;;;5053949;28;20028;-50
2022/04/01 08:57:49;;;;;;;11.52;6.03;;;9.50;59.90;;;;;;5070351;28;20024;-53
2022/04/01 09:00:14;;;;;;;13.00;6.07;;;9.60;59.50;;;;;;5071050;28;20542;-54
2022/04/01 09:03:17;;;;;;;9.40;5.82;;;9.60;59.40;;;;;;5070757;28;20029;-56
2022/04/01 09:05:51;;;;;;;11.82;6.72;;;9.60;59.00;;;;;;5052847;28;20033;-53
2022/04/01 09:08:26;;;;;;;9.70;6.20;;;9.60;59.10;;;;;;5070766;28;20116;-46
2022/04/01 09:11:09;;;;;;;17.65;6.63;;;9.50;58.80;;;;;;5052537;28;20052;-49
2022/04/01 09:13:47;;;;;;;15.50;7.40;;;9.40;59.00;;;;;;5070877;28;20024;-57
2022/04/01 09:16:38;;;;;;;11.23;6.10;;;9.50;59.20;;;;;;5052836;28;20025;-53
2022/04/01 09:19:06;;;;;;;11.30;5.95;;;9.60;58.90;;;;;;5070463;28;20103;-51
2022/04/01 09:21:33;;;;;;;8.02;5.20;;;9.70;58.50;;;;;;5071584;28;20476;-54
2022/04/01 09:24:18;;;;;;;11.38;6.38;;;9.80;58.10;;;;;;5070410;28;20067;-53
2022/04/01 09:26:44;;;;;;;8.98;5.93;;;9.70;58.30;;;;;;5052314;28;20469;-56
2022/04/01 09:29:12;;;;;;;9.25;5.50;;;9.70;58.30;;;;;;5052465;28;20029;-56
2022/04/01 09:31:40;;;;;;;7.32;5.40;;;9.70;58.00;;;;;;5052294;28;20347;-53
2022/04/01 09:34:12;;;;;;;6.15;5.13;;;9.80;58.40;;;;;;5070910;28;20104;-49
2022/04/01 09:36:41;;;;;;;6.70;5.45;;;9.80;58.00;;;;;;5071221;28;20032;-52
2022/04/01 09:39:12;;;;;;;11.05;6.10;;;9.70;57.80;;;;;;5070243;28;20081;-54
2022/04/01 09:41:42;;;;;;;7.13;5.25;;;9.80;58.00;;;;;;5071442;28;20017;-52
2022/04/01 09:44:18;;;;;;;7.65;4.85;;;9.90;58.00;;;;;;5052779;28;20047;-51
2022/04/01 09:46:56;;;;;;;7.88;5.20;;;9.90;57.50;;;;;;5071221;28;20471;-62
2022/04/01 09:49:42;;;;;;;5.93;4.55;;;9.90;57.30;;;;;;5052937;28;20389;-48
2022/04/01 09:52:34;;;;;;;11.38;5.78;;;9.90;57.30;;;;;;5052881;28;20115;-52
2022/04/01 09:55:00;;;;;;;7.15;5.53;;;9.90;57.10;;;;;;5052821;28;20033;-54
2022/04/01 09:57:28;;;;;;;7.63;5.28;;;10.00;57.10;;;;;;5071256;28;20579;-53
2022/04/01 09:59:54;;;;;;;9.32;5.85;;;10.00;56.50;;;;;;5071141;28;20052;-51
2022/04/01 10:02:20;;;;;;;9.73;5.03;;;10.00;56.80;;;;;;5053583;28;20108;-52
2022/04/01 10:04:46;;;;;;;8.02;5.32;;;10.00;56.30;;;;;;5052842;28;20025;-57
2022/04/01 10:07:12;;;;;;;8.63;5.80;;;9.90;56.50;;;;;;5053417;28;20048;-54
2022/04/01 10:09:39;;;;;;;9.27;5.40;;;9.90;56.10;;;;;;5071468;28;20158;-54
2022/04/01 10:12:12;;;;;;;10.95;6.47;;;9.90;56.40;;;;;;5052558;28;20241;-54
2022/04/01 10:14:40;;;;;;;6.70;5.55;;;9.90;56.70;;;;;;5053498;28;20069;-51
2022/04/01 10:17:10;;;;;;;7.75;5.50;;;10.00;56.40;;;;;;5073843;28;20065;-53
2022/04/01 10:19:39;;;;;;;6.75;4.80;;;10.00;55.70;;;;;;5074411;28;20033;-54
2022/04/01 10:22:05;;;;;;;7.72;6.18;;;9.90;55.80;;;;;;5074692;28;20103;-55
2022/04/01 10:24:54;;;;;;;7.57;5.63;;;9.90;56.10;;;;;;5074786;28;20036;-54
2022/04/01 10:27:28;;;;;;;8.43;5.32;;;9.70;55.80;;;;;;5056701;28;20115;-55
2022/04/01 10:29:57;;;;;;;6.88;5.78;;;9.70;56.20;;;;;;5074397;28;20028;-51
2022/04/01 10:32:24;;;;;;;8.63;6.30;;;9.60;56.30;;;;;;5074779;28;20021;-50
2022/04/01 10:34:51;;;;;;;11.02;6.18;;;9.50;56.40;;;;;;5074310;28;20023;-54
2022/04/01 10:37:18;;;;;;;6.97;6.28;;;9.60;56.90;;;;;;5074524;28;20036;-51
2022/04/01 10:39:49;;;;;;;9.60;6.88;;;9.70;56.90;;;;;;5074745;28;20044;-53
2022/04/01 10:42:16;;;;;;;6.80;5.53;;;9.90;56.60;;;;;;5056829;28;20032;-53
2022/04/01 10:44:51;;;;;;;9.77;6.22;;;10.10;56.00;;;;;;5074743;28;20032;-54
2022/04/01 10:47:17;;;;;;;8.82;6.63;;;10.10;55.40;;;;;;5074482;28;20025;-51
2022/04/01 10:52:30;;;;;;;6.38;5.35;;;10.10;55.00;;;;;;5074875;28;20040;-60
2022/04/01 10:55:18;;;;;;;8.68;5.60;;;10.00;54.90;;;;;;5074528;28;20025;-55
2022/04/01 10:57:47;;;;;;;10.38;5.70;;;9.90;55.20;;;;;;5056420;28;20032;-56
2022/04/01 11:00:18;;;;;;;7.20;5.78;;;10.00;55.60;;;;;;5074001;28;20098;-52
2022/04/01 11:02:46;;;;;;;8.73;6.15;;;10.10;55.50;;;;;;5074206;28;20483;-54
2022/04/01 11:05:31;;;;;;;17.95;7.53;;;10.20;55.10;;;;;;5056055;28;20091;-55
2022/04/01 11:08:24;;;;;;;8.10;6.13;;;10.20;54.70;;;;;;5073689;28;20025;-50
2022/04/01 11:11:09;;;;;;;9.13;5.72;;;10.20;54.30;;;;;;5070329;28;20080;-58
2022/04/01 11:13:37;;;;;;;10.32;5.95;;;10.10;54.30;;;;;;5056420;28;20024;-59
2022/04/01 11:16:20;;;;;;;6.20;5.20;;;10.10;54.50;;;;;;5073878;28;20112;-55
2022/04/01 11:19:25;;;;;;;7.60;4.68;;;10.10;54.70;;;;;;5056391;28;20024;-53
2022/04/01 11:21:51;;;;;;;10.18;5.00;;;10.10;54.50;;;;;;5073468;28;20039;-61
2022/04/01 11:24:22;;;;;;;16.65;6.22;;;10.10;54.70;;;;;;5073758;28;20458;-55
2022/04/01 11:26:48;;;;;;;15.30;8.00;;;10.20;54.70;;;;;;5073856;28;20099;-51
2022/04/01 11:29:22;;;;;;;18.98;9.82;;;10.30;54.30;;;;;;5073778;28;20093;-55
2022/04/01 11:31:48;;;;;;;;;;;10.20;54.00;;;;;;5056569;28;20449;-56
2022/04/01 11:34:14;;;;;;;8.63;6.38;;;10.30;54.10;;;;;;5073306;28;19904;-52
2022/04/01 11:36:42;;;;;;;10.15;5.78;;;10.30;54.00;;;;;;5073309;28;20024;-56
2022/04/01 11:39:10;;;;;;;9.18;5.50;;;10.10;54.10;;;;;;5072469;28;20032;-56
2022/04/01 11:41:51;;;;;;;7.63;5.15;;;10.10;54.20;;;;;;5073444;28;20060;-53
2022/04/01 11:44:17;;;;;;;5.32;4.68;;;10.10;54.10;;;;;;5073657;28;20024;-54
2022/04/01 11:46:53;;;;;;;7.22;4.80;;;10.20;54.40;;;;;;5073725;28;20047;-51
2022/04/01 11:49:23;;;;;;;20.35;6.53;;;10.30;54.00;;;;;;5055190;28;20059;-48
2022/04/01 11:51:49;;;;;;;9.65;5.63;;;10.50;54.10;;;;;;5073331;28;20025;-52
2022/04/01 11:54:16;;;;;;;6.30;4.72;;;10.60;53.50;;;;;;5054656;28;20054;-57
2022/04/01 11:56:43;;;;;;;13.70;5.43;;;10.70;52.80;;;;;;5055400;28;20029;-56
2022/04/01 11:59:09;;;;;;;7.75;5.88;;;10.60;52.30;;;;;;5054660;28;20052;-55
2022/04/01 12:01:54;;;;;;;5.53;4.70;;;10.50;52.80;;;;;;5054585;28;20039;-51
2022/04/01 12:04:29;;;;;;;18.45;5.97;;;10.60;52.80;;;;;;5073052;28;20028;-54
2022/04/01 12:09:42;;;;;;;7.10;5.20;;;10.60;53.30;;;;;;5073383;28;20443;-53
2022/04/01 12:12:08;;;;;;;9.20;6.05;;;10.60;53.30;;;;;;5072412;28;20033;-54
2022/04/01 12:14:35;;;;;;;8.40;6.07;;;10.70;53.20;;;;;;5072829;28;20035;-58
2022/04/01 12:17:05;;;;;;;5.57;4.80;;;10.80;53.00;;;;;;5072010;28;20048;-54
2022/04/01 12:19:32;;;;;;;6.90;5.13;;;10.80;52.50;;;;;;5054827;28;20039;-52
2022/04/01 12:21:59;;;;;;;7.05;5.35;;;10.70;52.70;;;;;;5054420;28;20055;-49
2022/04/01 12:24:30;;;;;;;7.70;6.18;;;10.80;52.70;;;;;;5072614;28;20032;-55
2022/04/01 12:26:56;;;;;;;10.07;5.40;;;10.90;52.70;;;;;;5072404;28;20020;-54
2022/04/01 12:29:26;;;;;;;7.10;5.47;;;10.90;52.40;;;;;;5072898;28;20028;-56
2022/04/01 12:31:55;;;;;;;5.63;4.68;;;10.90;52.30;;;;;;5073038;28;20040;-54
2022/04/01 12:34:21;;;;;;;14.93;5.43;;;10.90;52.40;;;;;;5054711;28;20397;-55
2022/04/01 12:37:14;;;;;;;19.23;5.80;;;10.80;52.10;;;;;;5072371;28;20029;-55
2022/04/01 12:39:44;;;;;;;10.50;7.28;;;10.80;52.50;;;;;;5068471;28;20051;-55
2022/04/01 12:42:11;;;;;;;8.60;5.70;;;10.70;52.50;;;;;;5053510;28;20032;-51
2022/04/01 12:44:44;;;;;;;7.50;5.47;;;10.70;53.10;;;;;;5054395;28;20036;-48
2022/04/01 12:47:12;;;;;;;15.45;6.15;;;10.70;52.70;;;;;;5053792;28;20024;-55
2022/04/01 12:49:42;;;;;;;10.20;5.15;;;10.60;52.70;;;;;;5053817;28;20033;-51
2022/04/01 12:52:16;;;;;;;10.60;6.57;;;10.60;53.00;;;;;;5052982;28;20032;-58
2022/04/01 12:54:47;;;;;;;18.20;6.30;;;10.50;53.60;;;;;;5071857;28;20052;-57
2022/04/01 12:57:13;;;;;;;8.00;5.28;;;10.60;53.70;;;;;;5053597;28;20078;-52
2022/04/01 12:59:47;;;;;;;6.88;4.72;;;10.80;53.20;;;;;;5071637;28;20040;-56
2022/04/01 13:02:19;;;;;;;8.15;4.50;;;10.80;52.80;;;;;;5071567;28;20021;-55
2022/04/01 13:04:55;;;;;;;5.82;4.28;;;10.80;52.90;;;;;;5053820;28;20036;-55
2022/04/01 13:07:35;;;;;;;6.95;5.10;;;11.00;52.70;;;;;;5053186;28;20063;-55
2022/04/01 13:10:06;;;;;;;6.68;5.00;;;11.10;52.10;;;;;;5053045;28;20437;-53
2022/04/01 13:12:32;;;;;;;5.63;4.20;;;11.10;52.00;;;;;;5053647;28;20029;-53
2022/04/01 13:15:00;;;;;;;4.95;3.75;;;11.30;52.00;;;;;;5071581;28;20101;-70